KMER/MER METAR and TAF weather

Enter ICAO airport designator
Station Type Date Time Source
KMER METAR 2020/08/10 19:45 UTC NOAA

KMER 101945Z 31006KT 10SM CLR 36/11 A2986


Station Type Date Time Source
KMER Decoded METAR 2020/08/10 19:45 UTC NOAA

Merced / Castle Air Force Base, CA, United States (KMER) 37-22N 120-34W 60M
Aug 10, 2020 - 03:45 PM EDT / 2020.08.10 1945 UTC
Wind: from the NW (310 degrees) at 7 MPH (6 KT):0
Visibility: 10 mile(s):0
Sky conditions: clear
Temperature: 96 F (36 C)
Dew Point: 51 F (11 C)
Relative Humidity: 22%
Pressure (altimeter): 29.86 in. Hg (1011 hPa)
ob: KMER 101945Z 31006KT 10SM CLR 36/11 A2986
cycle: 20

Station Type Date Time Source
KMER TAF 2020/08/10 18:27 UTC NOAA

TAF KMER 101720Z 1018/1118 VRB05KT P6SM SKC
FM102300 32008KT P6SM SKC

Example: see airport list